Time;durP1;ratioP1;P1;durP2;ratioP2;P2;SDS_P1;SDS_P2;PMS_P1;PMS_P2;Temp;Humidity;BMP_temperature;BMP_pressure;BME280_temperature;BME280_humidity;BME280_pressure;Samples;Min_cycle;Max_cycle;Signal;HPM_P1;HPM_P2
2023/06/04 00:01:36;;;;;;;11.73;8.32;;;12.80;99.90;;;;;;6187431;23;20453;-88
2023/06/04 00:04:25;;;;;;;12.30;8.07;;;12.80;99.90;;;;;;6187262;23;20436;-88
2023/06/04 00:07:13;;;;;;;15.02;8.10;;;12.60;99.90;;;;;;6185341;23;20099;-87
2023/06/04 00:10:00;;;;;;;13.63;9.10;;;12.60;99.90;;;;;;6187339;23;20056;-87
2023/06/04 00:12:49;;;;;;;13.77;8.55;;;12.50;99.90;;;;;;6167043;23;20032;-87
2023/06/04 00:15:36;;;;;;;11.68;7.85;;;12.70;99.90;;;;;;6187568;23;20380;-87
2023/06/04 00:18:23;;;;;;;14.60;8.40;;;12.80;99.90;;;;;;6187993;23;20032;-87
2023/06/04 00:21:11;;;;;;;15.77;8.70;;;12.70;99.90;;;;;;6185705;23;20433;-87
2023/06/04 00:24:00;;;;;;;15.80;8.82;;;12.70;99.90;;;;;;6186145;23;20021;-88
2023/06/04 00:26:47;;;;;;;11.23;7.75;;;12.70;99.90;;;;;;6187269;23;20036;-88
2023/06/04 00:29:39;;;;;;;13.65;7.90;;;12.60;99.90;;;;;;6189508;23;20036;-88
2023/06/04 00:32:26;;;;;;;12.32;7.68;;;12.50;99.90;;;;;;6186044;23;20021;-88
2023/06/04 00:35:14;;;;;;;14.57;7.70;;;12.50;99.90;;;;;;6185151;23;20337;-88
2023/06/04 00:38:02;;;;;;;14.52;8.23;;;12.40;99.90;;;;;;6184079;23;20029;-88
2023/06/04 00:40:50;;;;;;;10.20;7.57;;;12.50;99.90;;;;;;6187039;23;20021;-88
2023/06/04 00:43:37;;;;;;;12.20;8.15;;;12.60;99.90;;;;;;6186799;23;20420;-88
2023/06/04 00:46:28;;;;;;;14.45;7.63;;;12.70;99.90;;;;;;6185355;23;20025;-87
2023/06/04 00:49:16;;;;;;;13.73;8.20;;;12.80;99.90;;;;;;6193300;23;20029;-89
2023/06/04 00:52:03;;;;;;;13.38;8.02;;;12.70;99.90;;;;;;6189769;23;20028;-86
2023/06/04 00:54:52;;;;;;;14.63;8.70;;;12.60;99.90;;;;;;6186832;23;20025;-88
2023/06/04 00:57:39;;;;;;;12.40;8.20;;;12.60;99.90;;;;;;6187914;23;20325;-87
2023/06/04 01:00:31;;;;;;;13.75;8.07;;;12.60;99.90;;;;;;6186972;23;20140;-86
2023/06/04 01:03:22;;;;;;;;;;;12.70;99.90;;;;;;6188937;23;20029;-89
2023/06/04 01:06:33;;;;;;;12.63;8.43;;;12.70;99.90;;;;;;6191918;23;20058;-89
2023/06/04 01:09:21;;;;;;;13.25;7.20;;;12.80;99.90;;;;;;6189936;23;20033;-90
2023/06/04 01:12:10;;;;;;;11.82;7.55;;;12.80;99.90;;;;;;6186277;23;20408;-90
2023/06/04 01:14:57;;;;;;;14.35;7.25;;;12.80;99.90;;;;;;6185971;23;20053;-89
2023/06/04 01:17:51;;;;;;;15.65;7.30;;;12.80;99.90;;;;;;6188931;23;20025;-88
2023/06/04 01:20:46;;;;;;;13.55;7.25;;;12.80;99.90;;;;;;6190761;23;20060;-86
2023/06/04 01:23:58;;;;;;;10.90;6.88;;;12.70;99.90;;;;;;6189925;23;20039;-89
2023/06/04 01:26:46;;;;;;;13.32;7.38;;;12.70;99.90;;;;;;6188320;23;20277;-90
2023/06/04 01:29:36;;;;;;;10.63;7.13;;;12.60;99.90;;;;;;6186595;23;20420;-89
2023/06/04 01:32:24;;;;;;;10.43;7.13;;;12.60;99.90;;;;;;6185528;23;20033;-88
2023/06/04 01:35:12;;;;;;;14.30;7.80;;;12.50;99.90;;;;;;6186850;23;20021;-88
2023/06/04 01:38:00;;;;;;;18.10;7.88;;;12.40;99.90;;;;;;6187408;23;20021;-88
2023/06/04 01:40:47;;;;;;;13.20;7.60;;;12.30;99.90;;;;;;6185302;23;20045;-88
2023/06/04 01:43:35;;;;;;;13.48;7.43;;;12.30;99.90;;;;;;6189062;23;20045;-88
2023/06/04 01:46:22;;;;;;;12.10;7.18;;;12.50;99.90;;;;;;6187705;23;20029;-88
2023/06/04 01:49:10;;;;;;;13.93;7.18;;;12.50;99.90;;;;;;6183985;23;20056;-88
2023/06/04 01:51:58;;;;;;;13.38;7.25;;;12.50;99.90;;;;;;6188187;23;20047;-89
2023/06/04 01:54:45;;;;;;;10.32;7.65;;;12.40;99.90;;;;;;6186738;23;20040;-90
2023/06/04 01:57:34;;;;;;;9.10;6.80;;;12.40;99.90;;;;;;6189202;23;20028;-88
2023/06/04 02:00:21;;;;;;;11.55;7.28;;;12.30;99.90;;;;;;6190046;23;20025;-89
2023/06/04 02:03:08;;;;;;;13.65;7.25;;;12.20;99.90;;;;;;6187638;23;20025;-87
2023/06/04 02:05:56;;;;;;;14.18;7.18;;;12.10;99.90;;;;;;6187369;23;20080;-89
2023/06/04 02:08:45;;;;;;;9.82;6.63;;;12.00;99.90;;;;;;6190258;23;20029;-87
2023/06/04 02:11:33;;;;;;;10.15;6.63;;;12.00;99.90;;;;;;6188403;23;20032;-88
2023/06/04 02:14:20;;;;;;;11.48;7.03;;;11.90;99.90;;;;;;6185966;23;20021;-88
2023/06/04 02:17:16;;;;;;;11.15;7.57;;;12.00;99.90;;;;;;6167146;23;20025;-89
2023/06/04 02:20:09;;;;;;;15.48;7.50;;;11.90;99.90;;;;;;6186204;23;20083;-88
2023/06/04 02:22:57;;;;;;;12.15;7.50;;;11.70;99.90;;;;;;6190547;23;20025;-88
2023/06/04 02:25:45;;;;;;;14.18;7.60;;;11.60;99.90;;;;;;6190583;23;20055;-88
2023/06/04 02:28:34;;;;;;;13.82;7.82;;;11.50;99.90;;;;;;6194183;23;20032;-89
2023/06/04 02:31:21;;;;;;;12.07;7.75;;;11.40;99.90;;;;;;6184207;23;20025;-89
2023/06/04 02:34:08;;;;;;;10.18;7.13;;;11.40;99.90;;;;;;6187403;23;20083;-88
2023/06/04 02:36:56;;;;;;;15.45;7.97;;;11.40;99.90;;;;;;6187676;23;20025;-88
2023/06/04 02:39:44;;;;;;;13.10;8.65;;;11.50;99.90;;;;;;6186805;23;20152;-88
2023/06/04 02:42:31;;;;;;;13.07;8.45;;;11.50;99.90;;;;;;6187125;23;20416;-90
2023/06/04 02:45:18;;;;;;;13.15;8.23;;;11.60;99.90;;;;;;6186113;23;20057;-88
2023/06/04 02:48:06;;;;;;;16.13;9.35;;;11.70;99.90;;;;;;6187302;23;20028;-87
2023/06/04 02:50:53;;;;;;;14.05;8.35;;;11.70;99.90;;;;;;6164151;23;20072;-87
2023/06/04 02:53:43;;;;;;;16.65;8.50;;;11.70;99.90;;;;;;6185920;23;20029;-87
2023/06/04 02:56:32;;;;;;;12.93;7.85;;;11.60;99.90;;;;;;6182360;23;20021;-87
2023/06/04 02:59:20;;;;;;;10.60;7.97;;;11.40;99.90;;;;;;6186955;23;20029;-90
2023/06/04 03:02:07;;;;;;;12.25;7.82;;;11.20;99.90;;;;;;6184551;23;20100;-88
2023/06/04 03:04:55;;;;;;;11.40;7.47;;;11.10;99.90;;;;;;6184476;23;20348;-89
2023/06/04 03:07:46;;;;;;;12.60;7.07;;;10.90;99.90;;;;;;6185217;23;20043;-88
2023/06/04 03:10:33;;;;;;;14.95;9.27;;;10.80;99.90;;;;;;6187016;23;20030;-87
2023/06/04 03:13:21;;;;;;;18.10;9.18;;;10.80;99.90;;;;;;6186274;23;20036;-88
2023/06/04 03:16:10;;;;;;;17.42;10.27;;;10.80;1.00;;;;;;6186085;23;20428;-88
2023/06/04 03:18:57;;;;;;;16.75;10.23;;;10.80;1.00;;;;;;6188006;23;20021;-88
2023/06/04 03:21:45;;;;;;;19.98;10.68;;;10.80;1.00;;;;;;6184924;23;20032;-89
2023/06/04 03:24:38;;;;;;;14.43;10.02;;;10.90;1.00;;;;;;6184311;23;20366;-88
2023/06/04 03:27:26;;;;;;;13.55;9.15;;;10.90;1.00;;;;;;6183762;23;20025;-88
2023/06/04 03:30:13;;;;;;;12.30;8.43;;;10.80;1.00;;;;;;6185210;23;20017;-88
2023/06/04 03:33:02;;;;;;;13.63;8.90;;;10.80;1.00;;;;;;6184473;23;20031;-88
2023/06/04 03:35:52;;;;;;;14.88;9.30;;;10.70;1.00;;;;;;6183391;23;20055;-87
2023/06/04 03:38:39;;;;;;;12.05;8.27;;;10.70;1.00;;;;;;6183546;23;20647;-88
2023/06/04 03:41:26;;;;;;;15.85;9.25;;;10.60;1.00;;;;;;6185737;23;20032;-86
2023/06/04 03:44:15;;;;;;;13.95;9.32;;;10.60;1.00;;;;;;6185847;23;20025;-88
2023/06/04 03:47:02;;;;;;;13.43;9.57;;;10.60;1.00;;;;;;6187594;23;20025;-88
2023/06/04 03:49:50;;;;;;;13.88;9.07;;;10.50;5.10;;;;;;6184603;23;20040;-87
2023/06/04 03:52:37;;;;;;;15.63;8.10;;;10.50;29.40;;;;;;6185097;23;20036;-88
2023/06/04 03:55:24;;;;;;;12.57;8.27;;;10.40;50.20;;;;;;6182319;23;20017;-87
2023/06/04 03:58:11;;;;;;;12.27;7.65;;;10.40;71.30;;;;;;6185556;23;20102;-88
2023/06/04 04:00:59;;;;;;;15.95;9.23;;;10.40;65.70;;;;;;6183904;23;20105;-88
2023/06/04 04:04:24;;;;;;;19.90;10.38;;;10.50;79.40;;;;;;6186014;23;20041;-88
2023/06/04 04:07:20;;;;;;;14.70;9.20;;;10.50;79.90;;;;;;6185271;23;20110;-88
2023/06/04 04:10:08;;;;;;;15.85;8.85;;;10.60;87.00;;;;;;6184413;23;20032;-88
2023/06/04 04:12:58;;;;;;;11.82;8.05;;;10.60;78.50;;;;;;6186526;23;20020;-85
2023/06/04 04:15:45;;;;;;;15.93;8.38;;;10.50;96.20;;;;;;6187218;23;20025;-88
2023/06/04 04:18:34;;;;;;;10.90;8.50;;;10.50;99.90;;;;;;6183964;23;20021;-87
2023/06/04 04:21:23;;;;;;;17.65;9.32;;;10.50;96.80;;;;;;6183088;23;20028;-88
2023/06/04 04:24:10;;;;;;;16.23;10.13;;;10.60;99.90;;;;;;6183987;23;20029;-88
2023/06/04 04:26:58;;;;;;;15.77;9.50;;;10.70;99.90;;;;;;6183814;23;20029;-87
2023/06/04 04:29:48;;;;;;;12.25;9.07;;;10.80;99.90;;;;;;6184774;23;20028;-88
2023/06/04 04:32:38;;;;;;;15.52;9.60;;;10.80;99.90;;;;;;6185225;23;20144;-87
2023/06/04 04:35:26;;;;;;;14.82;8.65;;;10.90;99.90;;;;;;6186416;23;20040;-86
2023/06/04 04:38:13;;;;;;;13.90;7.32;;;10.90;99.90;;;;;;6186205;23;20036;-87
2023/06/04 04:41:01;;;;;;;11.35;6.22;;;11.00;99.90;;;;;;6187368;23;20691;-89
2023/06/04 04:43:48;;;;;;;13.45;6.43;;;11.10;14.90;;;;;;6182245;23;20118;-88
2023/06/04 04:46:36;;;;;;;13.85;8.48;;;11.20;1.00;;;;;;6185932;23;20039;-85
2023/06/04 04:49:23;;;;;;;19.58;8.90;;;11.30;1.00;;;;;;6186523;23;20036;-89
2023/06/04 04:52:11;;;;;;;18.08;8.95;;;11.40;1.00;;;;;;6186525;23;20025;-88
2023/06/04 04:54:58;;;;;;;16.95;8.73;;;11.30;1.00;;;;;;6186319;23;20025;-86
2023/06/04 04:57:46;;;;;;;13.73;8.75;;;11.40;1.00;;;;;;6186283;23;20025;-87
2023/06/04 05:00:33;;;;;;;18.95;7.68;;;11.40;1.00;;;;;;6185024;23;20408;-87
2023/06/04 05:03:20;;;;;;;8.52;5.65;;;11.50;1.00;;;;;;6185809;23;20100;-88
2023/06/04 05:06:16;;;;;;;10.43;5.53;;;11.80;1.00;;;;;;6183327;23;20035;-85
2023/06/04 05:09:03;;;;;;;6.88;4.80;;;12.00;99.90;;;;;;6187343;23;20025;-88
2023/06/04 05:11:51;;;;;;;7.68;5.03;;;12.10;99.90;;;;;;6183761;23;20111;-86
2023/06/04 05:14:39;;;;;;;8.88;4.90;;;12.20;99.90;;;;;;6183489;23;20043;-87
2023/06/04 05:17:29;;;;;;;12.23;5.22;;;12.20;99.90;;;;;;6183583;23;20039;-88
2023/06/04 05:20:20;;;;;;;7.57;4.55;;;12.30;99.90;;;;;;6186416;23;20060;-87
2023/06/04 05:23:08;;;;;;;9.15;5.00;;;12.40;99.90;;;;;;6183674;23;20424;-87
2023/06/04 05:25:56;;;;;;;10.20;5.18;;;12.50;99.90;;;;;;6185281;23;20395;-88
2023/06/04 05:28:45;;;;;;;13.32;8.35;;;12.70;99.90;;;;;;6186291;23;20057;-87
2023/06/04 05:31:34;;;;;;;13.02;8.60;;;12.70;99.90;;;;;;6188563;22;20159;-87
2023/06/04 05:34:22;;;;;;;12.73;7.60;;;12.60;99.90;;;;;;6185905;23;20025;-88
2023/06/04 05:37:09;;;;;;;8.27;5.22;;;12.70;99.90;;;;;;6164294;23;20025;-87
2023/06/04 05:40:05;;;;;;;14.60;7.78;;;12.80;99.90;;;;;;6188463;23;20025;-89
2023/06/04 05:42:55;;;;;;;10.40;7.85;;;13.00;99.90;;;;;;6189701;23;20769;-88
2023/06/04 05:45:42;;;;;;;9.27;6.50;;;13.00;99.90;;;;;;6184907;23;20025;-88
2023/06/04 05:48:30;;;;;;;10.00;6.55;;;13.10;99.90;;;;;;6187067;23;20028;-86
2023/06/04 05:51:17;;;;;;;9.63;6.38;;;13.30;99.90;;;;;;6185718;23;20029;-88
2023/06/04 05:54:04;;;;;;;8.73;5.95;;;13.40;99.90;;;;;;6183976;23;20309;-89
2023/06/04 05:56:52;;;;;;;8.43;4.80;;;13.60;99.90;;;;;;6189090;23;20025;-89
2023/06/04 05:59:41;;;;;;;7.80;4.65;;;13.70;99.90;;;;;;6183567;23;20043;-89
2023/06/04 06:02:34;;;;;;;8.13;3.88;;;13.90;99.90;;;;;;6187603;23;20036;-89
2023/06/04 06:05:22;;;;;;;9.05;4.40;;;14.00;99.90;;;;;;6186211;23;20333;-88
2023/06/04 06:08:09;;;;;;;6.13;3.38;;;14.10;99.90;;;;;;6185703;23;20104;-88
2023/06/04 06:10:57;;;;;;;7.03;3.90;;;14.30;94.70;;;;;;6186539;23;20032;-89
2023/06/04 06:13:44;;;;;;;6.97;4.20;;;14.40;93.20;;;;;;6185191;23;20025;-88
2023/06/04 06:16:32;;;;;;;7.30;4.00;;;14.60;83.10;;;;;;6185346;23;20033;-88
2023/06/04 06:19:20;;;;;;;8.98;4.22;;;14.70;81.70;;;;;;6187043;23;20021;-89
2023/06/04 06:22:10;;;;;;;7.30;4.30;;;14.80;80.10;;;;;;6185414;23;20024;-87
2023/06/04 06:24:57;;;;;;;6.68;4.32;;;14.90;78.00;;;;;;6188173;23;20032;-90
2023/06/04 06:27:48;;;;;;;11.20;4.07;;;14.90;80.60;;;;;;6186215;23;20107;-88
2023/06/04 06:30:35;;;;;;;10.43;3.88;;;15.00;67.40;;;;;;6187407;23;20024;-89
2023/06/04 06:33:24;;;;;;;6.15;3.83;;;15.00;71.60;;;;;;6187206;23;20029;-87
2023/06/04 06:36:18;;;;;;;4.45;3.05;;;15.20;69.30;;;;;;6187809;23;20024;-86
2023/06/04 06:39:10;;;;;;;8.65;3.65;;;15.40;41.00;;;;;;6186120;23;20032;-88
2023/06/04 06:42:00;;;;;;;8.63;3.30;;;15.70;23.90;;;;;;6185667;23;20028;-86
2023/06/04 06:44:47;;;;;;;8.35;3.30;;;16.00;4.70;;;;;;6185929;23;20029;-86
2023/06/04 06:47:34;;;;;;;6.53;3.40;;;16.20;1.00;;;;;;6187166;23;20351;-87
2023/06/04 06:50:22;;;;;;;6.25;3.15;;;16.50;1.00;;;;;;6188992;23;20029;-90
2023/06/04 06:53:09;;;;;;;11.40;3.67;;;16.70;1.00;;;;;;6186466;23;20325;-88
2023/06/04 06:55:57;;;;;;;6.82;3.15;;;16.90;1.00;;;;;;6188197;23;20029;-90
2023/06/04 06:58:45;;;;;;;7.43;3.05;;;17.10;1.00;;;;;;6186954;23;20025;-89
2023/06/04 07:01:33;;;;;;;7.55;3.10;;;17.40;1.00;;;;;;6187167;23;20028;-89
2023/06/04 07:04:21;;;;;;;6.13;2.50;;;17.90;1.00;;;;;;6184934;23;20025;-88
2023/06/04 07:07:08;;;;;;;4.20;3.10;;;18.20;1.00;;;;;;6182787;23;20032;-89
2023/06/04 07:09:55;;;;;;;4.60;2.95;;;18.60;1.00;;;;;;6184426;23;20424;-89
2023/06/04 07:12:43;;;;;;;4.53;2.65;;;18.80;1.00;;;;;;6183304;23;20040;-87
2023/06/04 07:15:32;;;;;;;6.55;3.10;;;19.10;1.00;;;;;;6186041;23;20112;-90
2023/06/04 07:18:22;;;;;;;9.70;2.97;;;19.40;1.00;;;;;;6186240;23;20039;-90
2023/06/04 07:21:09;;;;;;;5.78;3.10;;;19.90;1.00;;;;;;6186179;23;20035;-91
2023/06/04 07:23:58;;;;;;;13.55;2.83;;;20.30;1.00;;;;;;6187953;23;20436;-91
2023/06/04 07:26:52;;;;;;;6.93;3.15;;;20.70;1.00;;;;;;6184800;23;20029;-89
2023/06/04 07:29:42;;;;;;;3.90;2.50;;;21.20;1.00;;;;;;6185319;23;20036;-90
2023/06/04 07:32:30;;;;;;;8.73;2.85;;;21.20;1.00;;;;;;6186733;23;20432;-90
2023/06/04 07:35:21;;;;;;;7.10;2.92;;;21.70;1.00;;;;;;6184313;23;20029;-92
2023/06/04 07:38:13;;;;;;;4.65;2.42;;;22.50;1.00;;;;;;6184068;23;20029;-88
2023/06/04 07:41:00;;;;;;;6.57;2.83;;;22.60;1.00;;;;;;6185957;23;20437;-89
2023/06/04 07:43:48;;;;;;;3.97;2.42;;;22.50;1.00;;;;;;6183331;23;20033;-88
2023/06/04 07:46:35;;;;;;;4.18;2.33;;;22.90;1.00;;;;;;6186310;23;20029;-91
2023/06/04 07:49:23;;;;;;;6.15;2.40;;;23.50;1.00;;;;;;6162152;23;20040;-89
2023/06/04 07:52:14;;;;;;;10.77;2.47;;;24.00;1.00;;;;;;6186617;23;20032;-94
2023/06/04 07:55:02;;;;;;;7.10;2.55;;;23.90;1.00;;;;;;6185698;23;20036;-90
2023/06/04 07:57:51;;;;;;;4.50;2.80;;;24.10;1.00;;;;;;6185645;23;20025;-87
2023/06/04 08:00:38;;;;;;;7.57;3.05;;;24.20;1.00;;;;;;6184412;23;20092;-87
2023/06/04 08:03:28;;;;;;;4.90;2.72;;;24.40;1.00;;;;;;6183161;23;20021;-88
2023/06/04 08:06:16;;;;;;;4.57;2.55;;;24.50;1.00;;;;;;6184539;23;20065;-91
2023/06/04 08:09:03;;;;;;;8.23;2.80;;;24.90;1.00;;;;;;6186644;23;20039;-89
2023/06/04 08:11:53;;;;;;;5.53;2.83;;;25.20;1.00;;;;;;6185858;23;20025;-88
2023/06/04 08:14:50;;;;;;;5.25;2.60;;;25.10;1.00;;;;;;6188574;23;20025;-92
2023/06/04 08:17:46;;;;;;;5.65;2.95;;;25.20;1.00;;;;;;6191799;23;20466;-91
2023/06/04 08:20:44;;;;;;;7.35;2.63;;;24.90;1.00;;;;;;6185982;23;20021;-92
2023/06/04 08:23:32;;;;;;;7.95;2.85;;;25.00;1.00;;;;;;6185008;23;20307;-90
2023/06/04 08:26:22;;;;;;;5.30;2.83;;;25.20;1.00;;;;;;6187527;23;20029;-91
2023/06/04 08:29:12;;;;;;;3.92;2.63;;;25.30;1.00;;;;;;6186404;23;20029;-90
2023/06/04 08:31:59;;;;;;;4.88;2.67;;;25.70;1.00;;;;;;6189940;23;20040;-87
2023/06/04 08:34:54;;;;;;;6.95;3.00;;;25.70;1.00;;;;;;6191659;23;20032;-92
2023/06/04 08:37:41;;;;;;;5.35;2.60;;;25.80;1.00;;;;;;6193118;23;20328;-90
2023/06/04 08:40:31;;;;;;;5.45;2.60;;;25.70;1.00;;;;;;6188861;23;20020;-87
2023/06/04 08:43:19;;;;;;;4.75;3.00;;;25.80;1.00;;;;;;6186270;23;20108;-90
2023/06/04 08:46:23;;;;;;;3.15;2.78;;;25.70;1.00;;;;;;6187665;23;20025;-92
2023/06/04 08:49:34;;;;;;;6.60;3.03;;;26.20;1.00;;;;;;6188890;23;20488;-91
2023/06/04 08:52:21;;;;;;;6.15;2.80;;;26.50;1.00;;;;;;6189322;23;20021;-86
2023/06/04 08:55:12;;;;;;;5.85;2.70;;;26.60;1.00;;;;;;6188672;23;20024;-90
2023/06/04 08:58:00;;;;;;;9.15;3.00;;;26.40;1.00;;;;;;6184953;23;20391;-90
2023/06/04 09:00:49;;;;;;;5.70;2.70;;;27.10;1.00;;;;;;6195181;23;20112;-89
2023/06/04 09:03:37;;;;;;;6.88;2.47;;;27.30;1.00;;;;;;6190752;23;20100;-89
2023/06/04 09:06:28;;;;;;;7.75;3.13;;;28.00;1.00;;;;;;6190597;23;20029;-89
2023/06/04 09:09:17;;;;;;;6.90;3.00;;;28.00;1.00;;;;;;6192485;23;20020;-94
2023/06/04 09:12:09;;;;;;;4.55;3.00;;;28.00;1.00;;;;;;6191440;23;20096;-90
2023/06/04 09:15:00;;;;;;;5.53;2.92;;;28.40;1.00;;;;;;6192049;23;20024;-92
2023/06/04 09:17:47;;;;;;;5.63;2.75;;;28.40;1.00;;;;;;6169741;23;20021;-90
2023/06/04 09:20:35;;;;;;;10.20;2.75;;;28.20;1.00;;;;;;6191406;23;20037;-90
2023/06/04 09:23:23;;;;;;;7.93;2.80;;;28.40;1.00;;;;;;6191553;23;20322;-90
2023/06/04 09:26:11;;;;;;;5.25;2.97;;;28.70;1.00;;;;;;6191267;23;20092;-89
2023/06/04 09:28:59;;;;;;;7.13;3.25;;;28.40;1.00;;;;;;6190862;23;20310;-90
2023/06/04 09:31:58;;;;;;;4.60;2.42;;;28.20;1.00;;;;;;6193297;23;20029;-89
2023/06/04 09:34:46;;;;;;;5.00;2.83;;;28.50;1.00;;;;;;6193820;23;20120;-89
2023/06/04 09:37:36;;;;;;;6.05;2.90;;;28.40;1.00;;;;;;6189519;23;20068;-90
2023/06/04 09:40:34;;;;;;;4.65;3.05;;;28.30;1.00;;;;;;6193701;23;20028;-88
2023/06/04 09:43:25;;;;;;;5.00;2.78;;;28.40;1.00;;;;;;6189181;23;20353;-92
2023/06/04 09:46:14;;;;;;;5.57;2.80;;;28.80;1.00;;;;;;6190358;23;20025;-92
2023/06/04 09:49:04;;;;;;;6.28;2.65;;;29.30;1.00;;;;;;6188986;23;20025;-90
2023/06/04 09:51:54;;;;;;;;;;;29.10;1.00;;;;;;6187112;23;20056;-90
2023/06/04 09:54:42;;;;;;;6.47;2.83;;;29.20;1.00;;;;;;6187589;23;19926;-90
2023/06/04 09:57:35;;;;;;;5.97;3.17;;;30.10;1.00;;;;;;6189578;23;20480;-93
2023/06/04 10:00:28;;;;;;;5.47;3.50;;;29.80;1.00;;;;;;6192284;23;20289;-92
2023/06/04 10:03:17;;;;;;;6.60;3.05;;;29.30;1.00;;;;;;6188053;23;20035;-90
2023/06/04 10:06:07;;;;;;;4.93;2.50;;;29.50;1.00;;;;;;6186821;23;20021;-93
2023/06/04 10:09:30;;;;;;;4.70;3.00;;;30.30;1.00;;;;;;6190160;23;20090;-91
2023/06/04 10:12:55;;;;;;;5.07;3.25;;;31.00;1.00;;;;;;6176241;23;20100;-92
2023/06/04 10:15:53;;;;;;;4.78;3.40;;;31.00;1.00;;;;;;6192689;23;20021;-93
2023/06/04 10:18:49;;;;;;;5.80;3.88;;;30.10;1.00;;;;;;6189801;23;20023;-93
2023/06/04 10:21:43;;;;;;;8.00;3.38;;;30.00;1.00;;;;;;6194191;23;20029;-93
2023/06/04 10:24:31;;;;;;;8.38;3.40;;;30.60;1.00;;;;;;6196102;23;20029;-91
2023/06/04 10:27:22;;;;;;;4.53;3.28;;;31.20;1.00;;;;;;6197324;23;20035;-90
2023/06/04 10:30:22;;;;;;;6.32;2.72;;;31.60;1.00;;;;;;6194401;23;20068;-93
2023/06/04 10:33:15;;;;;;;5.28;3.15;;;31.60;1.00;;;;;;6192141;23;20017;-91
2023/06/04 10:36:21;;;;;;;9.88;3.33;;;31.80;1.00;;;;;;6191805;23;20096;-89
2023/06/04 10:39:28;;;;;;;4.90;3.42;;;31.70;1.00;;;;;;6189034;23;20083;-92
2023/06/04 10:42:18;;;;;;;5.97;2.97;;;31.60;1.00;;;;;;6190303;23;20036;-91
2023/06/04 10:45:10;;;;;;;6.55;3.22;;;31.40;1.00;;;;;;6188480;23;20043;-89
2023/06/04 10:48:04;;;;;;;5.03;3.17;;;31.50;1.00;;;;;;6185088;23;20020;-90
2023/06/04 10:50:55;;;;;;;5.60;3.08;;;32.10;1.00;;;;;;6186679;23;20071;-91
2023/06/04 10:53:43;;;;;;;5.47;3.63;;;32.60;1.00;;;;;;6186665;23;20045;-90
2023/06/04 10:56:37;;;;;;;4.72;3.40;;;32.30;1.00;;;;;;6186828;23;20404;-91
2023/06/04 10:59:25;;;;;;;7.13;3.00;;;31.80;1.00;;;;;;6184714;23;20021;-92
2023/06/04 11:02:14;;;;;;;5.63;3.40;;;32.00;1.00;;;;;;6185155;23;20035;-92
2023/06/04 11:05:11;;;;;;;5.63;3.35;;;32.30;1.00;;;;;;6189309;23;20025;-92
2023/06/04 11:08:04;;;;;;;7.25;3.63;;;33.40;1.00;;;;;;6167362;23;20083;-92
2023/06/04 11:10:52;;;;;;;8.05;3.20;;;33.40;1.00;;;;;;6187504;23;20021;-91
2023/06/04 11:13:42;;;;;;;6.35;3.75;;;32.40;1.00;;;;;;6182254;23;20362;-88
2023/06/04 11:16:34;;;;;;;4.95;3.13;;;32.60;1.00;;;;;;6185439;23;20178;-93
2023/06/04 11:19:22;;;;;;;6.70;3.45;;;32.70;1.00;;;;;;6191417;23;20025;-92
2023/06/04 11:22:13;;;;;;;4.40;3.00;;;32.80;1.00;;;;;;6193681;23;20044;-91
2023/06/04 11:25:05;;;;;;;5.40;3.45;;;33.40;1.00;;;;;;6189173;23;20021;-91
2023/06/04 11:27:53;;;;;;;4.75;3.13;;;32.90;1.00;;;;;;6187225;23;20424;-91
2023/06/04 11:30:43;;;;;;;5.50;3.00;;;31.50;1.00;;;;;;6188431;23;20024;-90
2023/06/04 11:33:54;;;;;;;6.85;3.28;;;30.10;1.00;;;;;;6186657;23;20075;-94
2023/06/04 11:36:54;;;;;;;;;;;;;;;;;;;;;
2023/06/04 11:40:00;;;;;;;7.32;4.35;;;29.20;1.00;;;;;;6188554;23;20028;-94
2023/06/04 11:42:52;;;;;;;5.68;3.58;;;30.70;1.00;;;;;;6185947;23;20040;-90
2023/06/04 11:45:40;;;;;;;7.43;3.63;;;32.30;1.00;;;;;;6188983;23;20028;-90
2023/06/04 11:48:33;;;;;;;5.00;3.70;;;31.30;1.00;;;;;;6188502;23;20033;-92
2023/06/04 11:51:55;;;;;;;7.00;3.17;;;31.90;1.00;;;;;;6187029;23;20024;-90
2023/06/04 11:54:45;;;;;;;7.47;3.47;;;33.20;1.00;;;;;;6189579;23;20028;-91
2023/06/04 11:57:36;;;;;;;3.60;3.03;;;34.20;1.00;;;;;;6185614;23;20096;-91
2023/06/04 12:00:30;;;;;;;5.18;2.90;;;34.70;1.00;;;;;;6188083;23;20040;-92
2023/06/04 12:03:20;;;;;;;6.07;3.15;;;34.50;1.00;;;;;;6186408;23;20029;-91
2023/06/04 12:06:20;;;;;;;6.57;3.33;;;32.20;1.00;;;;;;6188569;23;20025;-89
2023/06/04 12:09:31;;;;;;;4.63;3.30;;;31.60;1.00;;;;;;6167609;23;20044;-89
2023/06/04 12:12:23;;;;;;;5.30;3.40;;;32.30;1.00;;;;;;6186363;23;20572;-91
2023/06/04 12:15:19;;;;;;;8.18;3.72;;;33.20;1.00;;;;;;6186761;23;20301;-92
2023/06/04 12:18:09;;;;;;;5.40;3.67;;;33.10;1.00;;;;;;6190085;23;20028;-91
2023/06/04 12:21:28;;;;;;;7.20;3.80;;;33.50;1.00;;;;;;6189125;23;20116;-91
2023/06/04 12:24:16;;;;;;;4.88;3.60;;;32.00;1.00;;;;;;6185213;23;20087;-88
2023/06/04 12:27:06;;;;;;;6.00;3.88;;;31.50;1.00;;;;;;6187795;23;20053;-88
2023/06/04 12:30:03;;;;;;;5.57;3.33;;;30.80;1.00;;;;;;6190549;23;20467;-92
2023/06/04 12:33:01;;;;;;;5.18;2.95;;;30.10;1.00;;;;;;6190006;23;20047;-89
2023/06/04 12:35:54;;;;;;;3.53;2.90;;;30.50;1.00;;;;;;6188511;23;20100;-89
2023/06/04 12:38:41;;;;;;;4.57;3.20;;;31.70;1.00;;;;;;6189086;23;20427;-93
2023/06/04 12:41:30;;;;;;;7.80;2.83;;;33.00;1.00;;;;;;6188639;23;20033;-91
2023/06/04 12:44:17;;;;;;;7.95;4.10;;;33.20;1.00;;;;;;6187913;23;20029;-90
2023/06/04 12:47:23;;;;;;;5.90;3.22;;;32.80;1.00;;;;;;6185813;23;20024;-91
2023/06/04 12:50:10;;;;;;;7.00;3.17;;;33.90;1.00;;;;;;6184326;23;20025;-91
2023/06/04 12:52:58;;;;;;;4.80;3.05;;;33.70;1.00;;;;;;6185229;23;20325;-90
2023/06/04 12:55:45;;;;;;;6.50;3.00;;;33.80;1.00;;;;;;6185911;23;20040;-93
2023/06/04 12:58:33;;;;;;;7.60;3.38;;;34.10;1.00;;;;;;6195348;23;20328;-91
2023/06/04 13:01:30;;;;;;;5.45;3.47;;;33.20;1.00;;;;;;6193842;23;20028;-93
2023/06/04 13:04:20;;;;;;;4.35;3.80;;;30.80;1.00;;;;;;6192517;23;20039;-89
2023/06/04 13:07:07;;;;;;;7.57;3.80;;;28.20;1.00;;;;;;6192268;23;20125;-91
2023/06/04 13:09:55;;;;;;;6.15;3.65;;;27.20;1.00;;;;;;6188374;23;20049;-92
2023/06/04 13:12:42;;;;;;;7.15;3.72;;;28.50;1.00;;;;;;6189917;23;20025;-93
2023/06/04 13:15:30;;;;;;;7.78;3.75;;;30.60;1.00;;;;;;6187764;23;20079;-90
2023/06/04 13:18:29;;;;;;;4.57;3.20;;;32.70;1.00;;;;;;6187206;23;20025;-92
2023/06/04 13:21:16;;;;;;;6.40;4.05;;;33.90;1.00;;;;;;6187958;23;20025;-91
2023/06/04 13:24:04;;;;;;;7.25;3.70;;;34.10;1.00;;;;;;6190254;23;20421;-89
2023/06/04 13:26:51;;;;;;;4.93;3.58;;;32.60;1.00;;;;;;6189483;23;20028;-88
2023/06/04 13:30:30;;;;;;;8.60;3.75;;;30.60;1.00;;;;;;6188130;23;20040;-93
2023/06/04 13:33:19;;;;;;;6.85;3.92;;;28.60;1.00;;;;;;6178338;23;20031;-92
2023/06/04 13:36:07;;;;;;;7.18;5.03;;;27.50;1.00;;;;;;6185608;23;20029;-91
2023/06/04 13:38:55;;;;;;;7.35;4.00;;;27.60;1.00;;;;;;6187710;23;20029;-93
2023/06/04 13:41:44;;;;;;;7.03;4.07;;;29.20;1.00;;;;;;6188154;23;20118;-91
2023/06/04 13:44:37;;;;;;;10.27;4.20;;;30.20;1.00;;;;;;6187704;23;20025;-90
2023/06/04 13:47:27;;;;;;;6.90;4.00;;;31.60;1.00;;;;;;6189318;23;20036;-90
2023/06/04 13:50:14;;;;;;;4.88;3.78;;;31.40;1.00;;;;;;6192168;23;20353;-91
2023/06/04 13:53:05;;;;;;;6.78;3.97;;;31.30;1.00;;;;;;6191117;23;20029;-90
2023/06/04 13:55:57;;;;;;;6.15;4.38;;;30.20;1.00;;;;;;6193513;23;20025;-92
2023/06/04 13:58:47;;;;;;;7.72;4.15;;;28.60;1.00;;;;;;6191897;23;20029;-89
2023/06/04 14:01:36;;;;;;;4.68;3.78;;;28.80;1.00;;;;;;6191546;23;20029;-91
2023/06/04 14:04:28;;;;;;;8.35;4.07;;;30.20;1.00;;;;;;6188064;23;20120;-92
2023/06/04 14:07:16;;;;;;;4.90;4.10;;;31.00;1.00;;;;;;6189236;23;20091;-91
2023/06/04 14:10:54;;;;;;;8.85;3.70;;;31.80;1.00;;;;;;6191560;23;20078;-91
2023/06/04 14:13:55;;;;;;;;;;;;;;;;;;;;;
2023/06/04 14:16:54;;;;;;;9.40;3.78;;;33.10;1.00;;;;;;6190123;23;20025;-92
2023/06/04 14:20:09;;;;;;;7.95;3.72;;;33.20;1.00;;;;;;6184269;23;20029;-89
2023/06/04 14:22:57;;;;;;;5.38;3.50;;;32.50;1.00;;;;;;6186912;23;20025;-91
2023/06/04 14:25:47;;;;;;;5.68;3.63;;;32.20;1.00;;;;;;6185955;23;20155;-92
2023/06/04 14:28:34;;;;;;;6.30;3.83;;;31.30;1.00;;;;;;6188623;23;20025;-90
2023/06/04 14:31:24;;;;;;;8.30;3.88;;;29.90;1.00;;;;;;6186054;23;20044;-89
2023/06/04 14:34:11;;;;;;;10.32;4.00;;;29.60;1.00;;;;;;6187762;23;20025;-91
2023/06/04 14:37:00;;;;;;;7.28;4.03;;;30.10;1.00;;;;;;6185029;23;20039;-90
2023/06/04 14:40:08;;;;;;;4.93;4.18;;;30.90;1.00;;;;;;6190464;23;20421;-93
2023/06/04 14:43:13;;;;;;;4.63;3.67;;;31.30;1.00;;;;;;6187481;23;20029;-91
2023/06/04 14:46:01;;;;;;;10.65;3.90;;;31.10;1.00;;;;;;6167782;23;20021;-91
2023/06/04 14:48:49;;;;;;;9.63;3.80;;;31.00;1.00;;;;;;6188341;23;20025;-88
2023/06/04 14:51:36;;;;;;;9.45;3.63;;;29.60;1.00;;;;;;6189997;23;20081;-92
2023/06/04 14:54:26;;;;;;;4.43;3.35;;;28.80;1.00;;;;;;6192353;23;20028;-92